sensor_id;sensor_type;location;lat;lon;timestamp;P1;durP1;ratioP1;P2;durP2;ratioP2
19364;SDS011;9818;48.382;10.850;2023-08-06T00:00:54;4.27;;;3.87;;
19364;SDS011;9818;48.382;10.850;2023-08-06T00:03:23;4.17;;;3.37;;
19364;SDS011;9818;48.382;10.850;2023-08-06T00:05:51;4.87;;;3.70;;
19364;SDS011;9818;48.382;10.850;2023-08-06T00:08:20;5.23;;;4.57;;
19364;SDS011;9818;48.382;10.850;2023-08-06T00:10:49;4.40;;;4.00;;
19364;SDS011;9818;48.382;10.850;2023-08-06T00:13:17;4.23;;;3.43;;
19364;SDS011;9818;48.382;10.850;2023-08-06T00:15:49;5.00;;;4.10;;
19364;SDS011;9818;48.382;10.850;2023-08-06T00:18:17;4.07;;;3.70;;
19364;SDS011;9818;48.382;10.850;2023-08-06T00:20:46;5.77;;;4.03;;
19364;SDS011;9818;48.382;10.850;2023-08-06T00:23:15;4.10;;;3.70;;
19364;SDS011;9818;48.382;10.850;2023-08-06T00:25:43;4.37;;;3.97;;
19364;SDS011;9818;48.382;10.850;2023-08-06T00:28:12;6.13;;;4.20;;
19364;SDS011;9818;48.382;10.850;2023-08-06T00:30:40;4.17;;;3.77;;
19364;SDS011;9818;48.382;10.850;2023-08-06T00:33:12;4.17;;;3.70;;
19364;SDS011;9818;48.382;10.850;2023-08-06T00:35:40;4.83;;;4.33;;
19364;SDS011;9818;48.382;10.850;2023-08-06T00:38:09;4.57;;;4.17;;
19364;SDS011;9818;48.382;10.850;2023-08-06T00:40:38;5.20;;;4.20;;
19364;SDS011;9818;48.382;10.850;2023-08-06T00:43:06;4.80;;;4.30;;
19364;SDS011;9818;48.382;10.850;2023-08-06T00:45:36;6.47;;;4.23;;
19364;SDS011;9818;48.382;10.850;2023-08-06T00:48:05;4.70;;;4.17;;
19364;SDS011;9818;48.382;10.850;2023-08-06T00:50:36;5.20;;;3.87;;
19364;SDS011;9818;48.382;10.850;2023-08-06T00:53:05;5.63;;;4.50;;
19364;SDS011;9818;48.382;10.850;2023-08-06T00:55:34;6.13;;;4.60;;
19364;SDS011;9818;48.382;10.850;2023-08-06T00:58:03;5.60;;;4.30;;
19364;SDS011;9818;48.382;10.850;2023-08-06T01:00:32;5.73;;;4.80;;
19364;SDS011;9818;48.382;10.850;2023-08-06T01:03:01;5.93;;;4.23;;
19364;SDS011;9818;48.382;10.850;2023-08-06T01:05:30;5.13;;;3.90;;
19364;SDS011;9818;48.382;10.850;2023-08-06T01:08:06;5.80;;;4.07;;
19364;SDS011;9818;48.382;10.850;2023-08-06T01:10:45;4.43;;;4.00;;
19364;SDS011;9818;48.382;10.850;2023-08-06T01:13:24;4.60;;;4.10;;
19364;SDS011;9818;48.382;10.850;2023-08-06T01:16:55;4.20;;;3.80;;
19364;SDS011;9818;48.382;10.850;2023-08-06T01:19:26;4.80;;;4.23;;
19364;SDS011;9818;48.382;10.850;2023-08-06T01:23:52;5.13;;;4.30;;
19364;SDS011;9818;48.382;10.850;2023-08-06T01:26:42;5.53;;;4.20;;
19364;SDS011;9818;48.382;10.850;2023-08-06T01:29:38;4.73;;;4.10;;
19364;SDS011;9818;48.382;10.850;2023-08-06T01:32:34;5.10;;;4.00;;
19364;SDS011;9818;48.382;10.850;2023-08-06T01:35:24;4.63;;;3.90;;
19364;SDS011;9818;48.382;10.850;2023-08-06T01:38:15;6.57;;;3.97;;
19364;SDS011;9818;48.382;10.850;2023-08-06T01:41:07;5.53;;;3.90;;
19364;SDS011;9818;48.382;10.850;2023-08-06T01:43:56;5.10;;;3.50;;
19364;SDS011;9818;48.382;10.850;2023-08-06T01:46:45;4.87;;;3.80;;
19364;SDS011;9818;48.382;10.850;2023-08-06T01:51:39;4.40;;;3.90;;
19364;SDS011;9818;48.382;10.850;2023-08-06T01:54:07;4.83;;;3.70;;
19364;SDS011;9818;48.382;10.850;2023-08-06T01:56:36;4.00;;;3.63;;
19364;SDS011;9818;48.382;10.850;2023-08-06T01:59:05;3.50;;;3.20;;
19364;SDS011;9818;48.382;10.850;2023-08-06T02:01:33;3.57;;;3.17;;
19364;SDS011;9818;48.382;10.850;2023-08-06T02:04:02;5.60;;;3.90;;
19364;SDS011;9818;48.382;10.850;2023-08-06T02:06:31;4.30;;;3.37;;
19364;SDS011;9818;48.382;10.850;2023-08-06T02:09:02;3.70;;;3.40;;
19364;SDS011;9818;48.382;10.850;2023-08-06T02:11:31;3.80;;;3.40;;
19364;SDS011;9818;48.382;10.850;2023-08-06T02:13:59;3.60;;;3.17;;
19364;SDS011;9818;48.382;10.850;2023-08-06T02:16:28;4.07;;;3.63;;
19364;SDS011;9818;48.382;10.850;2023-08-06T02:18:57;4.77;;;3.43;;
19364;SDS011;9818;48.382;10.850;2023-08-06T02:21:26;4.00;;;3.50;;
19364;SDS011;9818;48.382;10.850;2023-08-06T02:23:54;4.17;;;3.67;;
19364;SDS011;9818;48.382;10.850;2023-08-06T02:26:26;4.50;;;3.50;;
19364;SDS011;9818;48.382;10.850;2023-08-06T02:28:54;3.97;;;3.57;;
19364;SDS011;9818;48.382;10.850;2023-08-06T02:31:23;5.73;;;4.17;;
19364;SDS011;9818;48.382;10.850;2023-08-06T02:33:52;4.43;;;3.83;;
19364;SDS011;9818;48.382;10.850;2023-08-06T02:36:22;4.33;;;3.77;;
19364;SDS011;9818;48.382;10.850;2023-08-06T02:38:54;4.70;;;3.40;;
19364;SDS011;9818;48.382;10.850;2023-08-06T02:41:23;3.60;;;3.23;;
19364;SDS011;9818;48.382;10.850;2023-08-06T02:43:54;5.97;;;3.97;;
19364;SDS011;9818;48.382;10.850;2023-08-06T02:46:23;5.33;;;3.70;;
19364;SDS011;9818;48.382;10.850;2023-08-06T02:48:51;6.13;;;4.20;;
19364;SDS011;9818;48.382;10.850;2023-08-06T02:51:20;4.37;;;3.83;;
19364;SDS011;9818;48.382;10.850;2023-08-06T02:53:49;4.03;;;3.63;;
19364;SDS011;9818;48.382;10.850;2023-08-06T02:56:17;5.37;;;4.40;;
19364;SDS011;9818;48.382;10.850;2023-08-06T02:58:49;5.17;;;4.07;;
19364;SDS011;9818;48.382;10.850;2023-08-06T03:01:17;5.90;;;4.80;;
19364;SDS011;9818;48.382;10.850;2023-08-06T03:03:48;4.73;;;3.73;;
19364;SDS011;9818;48.382;10.850;2023-08-06T03:06:17;4.40;;;3.90;;
19364;SDS011;9818;48.382;10.850;2023-08-06T03:08:45;4.40;;;3.93;;
19364;SDS011;9818;48.382;10.850;2023-08-06T03:11:14;5.90;;;4.10;;
19364;SDS011;9818;48.382;10.850;2023-08-06T03:13:43;5.30;;;4.20;;
19364;SDS011;9818;48.382;10.850;2023-08-06T03:16:14;5.03;;;3.83;;
19364;SDS011;9818;48.382;10.850;2023-08-06T03:18:43;5.37;;;3.97;;
19364;SDS011;9818;48.382;10.850;2023-08-06T03:21:12;4.20;;;3.77;;
19364;SDS011;9818;48.382;10.850;2023-08-06T03:23:41;6.53;;;4.13;;
19364;SDS011;9818;48.382;10.850;2023-08-06T03:26:10;5.97;;;4.63;;
19364;SDS011;9818;48.382;10.850;2023-08-06T03:28:38;6.40;;;4.27;;
19364;SDS011;9818;48.382;10.850;2023-08-06T03:31:07;6.23;;;4.07;;
19364;SDS011;9818;48.382;10.850;2023-08-06T03:33:38;6.03;;;3.70;;
19364;SDS011;9818;48.382;10.850;2023-08-06T03:36:07;3.73;;;3.37;;
19364;SDS011;9818;48.382;10.850;2023-08-06T03:38:36;4.57;;;4.00;;
19364;SDS011;9818;48.382;10.850;2023-08-06T03:41:05;7.70;;;3.80;;
19364;SDS011;9818;48.382;10.850;2023-08-06T03:43:34;4.27;;;3.87;;
19364;SDS011;9818;48.382;10.850;2023-08-06T03:46:03;4.93;;;3.63;;
19364;SDS011;9818;48.382;10.850;2023-08-06T03:48:31;5.03;;;3.53;;
19364;SDS011;9818;48.382;10.850;2023-08-06T03:51:03;3.93;;;3.53;;
19364;SDS011;9818;48.382;10.850;2023-08-06T03:53:31;4.70;;;3.83;;
19364;SDS011;9818;48.382;10.850;2023-08-06T03:56:00;4.13;;;3.73;;
19364;SDS011;9818;48.382;10.850;2023-08-06T03:58:29;4.70;;;3.67;;
19364;SDS011;9818;48.382;10.850;2023-08-06T04:00:58;4.50;;;3.50;;
19364;SDS011;9818;48.382;10.850;2023-08-06T04:03:27;3.57;;;3.27;;
19364;SDS011;9818;48.382;10.850;2023-08-06T04:05:56;4.27;;;3.17;;
19364;SDS011;9818;48.382;10.850;2023-08-06T04:08:28;6.80;;;3.63;;
19364;SDS011;9818;48.382;10.850;2023-08-06T04:10:57;4.73;;;3.87;;
19364;SDS011;9818;48.382;10.850;2023-08-06T04:13:26;3.70;;;3.27;;
19364;SDS011;9818;48.382;10.850;2023-08-06T04:15:54;3.73;;;3.00;;
19364;SDS011;9818;48.382;10.850;2023-08-06T04:18:28;6.00;;;3.17;;
19364;SDS011;9818;48.382;10.850;2023-08-06T04:20:57;5.00;;;3.60;;
19364;SDS011;9818;48.382;10.850;2023-08-06T04:23:26;5.07;;;2.90;;
19364;SDS011;9818;48.382;10.850;2023-08-06T04:25:57;4.80;;;3.30;;
19364;SDS011;9818;48.382;10.850;2023-08-06T04:28:26;4.33;;;3.40;;
19364;SDS011;9818;48.382;10.850;2023-08-06T04:30:55;3.93;;;3.17;;
19364;SDS011;9818;48.382;10.850;2023-08-06T04:33:23;3.40;;;3.10;;
19364;SDS011;9818;48.382;10.850;2023-08-06T04:35:55;3.50;;;2.87;;
19364;SDS011;9818;48.382;10.850;2023-08-06T04:38:24;4.00;;;3.23;;
19364;SDS011;9818;48.382;10.850;2023-08-06T04:40:56;4.33;;;3.20;;
19364;SDS011;9818;48.382;10.850;2023-08-06T04:43:24;3.43;;;3.03;;
19364;SDS011;9818;48.382;10.850;2023-08-06T04:45:54;3.10;;;2.80;;
19364;SDS011;9818;48.382;10.850;2023-08-06T04:48:23;3.53;;;3.23;;
19364;SDS011;9818;48.382;10.850;2023-08-06T04:50:52;4.90;;;3.30;;
19364;SDS011;9818;48.382;10.850;2023-08-06T04:53:20;3.37;;;3.00;;
19364;SDS011;9818;48.382;10.850;2023-08-06T04:55:49;5.37;;;3.17;;
19364;SDS011;9818;48.382;10.850;2023-08-06T04:58:20;5.80;;;3.17;;
19364;SDS011;9818;48.382;10.850;2023-08-06T05:00:49;4.03;;;2.87;;
19364;SDS011;9818;48.382;10.850;2023-08-06T05:03:18;3.73;;;3.00;;
19364;SDS011;9818;48.382;10.850;2023-08-06T05:05:47;4.27;;;3.30;;
19364;SDS011;9818;48.382;10.850;2023-08-06T05:08:16;4.80;;;3.33;;
19364;SDS011;9818;48.382;10.850;2023-08-06T05:10:45;4.90;;;3.37;;
19364;SDS011;9818;48.382;10.850;2023-08-06T05:13:13;4.30;;;3.47;;
19364;SDS011;9818;48.382;10.850;2023-08-06T05:15:45;4.63;;;3.50;;
19364;SDS011;9818;48.382;10.850;2023-08-06T05:18:13;4.93;;;3.50;;
19364;SDS011;9818;48.382;10.850;2023-08-06T05:20:42;4.23;;;3.27;;
19364;SDS011;9818;48.382;10.850;2023-08-06T05:23:11;4.13;;;3.23;;
19364;SDS011;9818;48.382;10.850;2023-08-06T05:25:40;4.87;;;3.20;;
19364;SDS011;9818;48.382;10.850;2023-08-06T05:28:09;6.23;;;3.10;;
19364;SDS011;9818;48.382;10.850;2023-08-06T05:30:39;3.67;;;3.33;;
19364;SDS011;9818;48.382;10.850;2023-08-06T05:33:10;3.90;;;3.00;;
19364;SDS011;9818;48.382;10.850;2023-08-06T05:35:40;3.57;;;3.23;;
19364;SDS011;9818;48.382;10.850;2023-08-06T05:38:10;4.57;;;3.00;;
19364;SDS011;9818;48.382;10.850;2023-08-06T05:40:39;4.40;;;3.13;;
19364;SDS011;9818;48.382;10.850;2023-08-06T05:43:08;4.40;;;3.57;;
19364;SDS011;9818;48.382;10.850;2023-08-06T05:45:37;3.40;;;3.10;;
19364;SDS011;9818;48.382;10.850;2023-08-06T05:48:05;4.17;;;3.10;;
19364;SDS011;9818;48.382;10.850;2023-08-06T05:50:37;5.13;;;3.10;;
19364;SDS011;9818;48.382;10.850;2023-08-06T05:53:05;4.20;;;2.87;;
19364;SDS011;9818;48.382;10.850;2023-08-06T05:55:34;4.53;;;2.90;;
19364;SDS011;9818;48.382;10.850;2023-08-06T05:58:03;2.90;;;2.57;;
19364;SDS011;9818;48.382;10.850;2023-08-06T06:00:32;2.63;;;2.07;;
19364;SDS011;9818;48.382;10.850;2023-08-06T06:03:01;2.93;;;2.63;;
19364;SDS011;9818;48.382;10.850;2023-08-06T06:05:29;2.80;;;2.10;;
19364;SDS011;9818;48.382;10.850;2023-08-06T06:08:01;3.90;;;2.10;;
19364;SDS011;9818;48.382;10.850;2023-08-06T06:10:29;2.30;;;2.10;;
19364;SDS011;9818;48.382;10.850;2023-08-06T06:12:58;3.17;;;2.10;;
19364;SDS011;9818;48.382;10.850;2023-08-06T06:15:27;3.07;;;2.10;;
19364;SDS011;9818;48.382;10.850;2023-08-06T06:17:56;2.73;;;2.37;;
19364;SDS011;9818;48.382;10.850;2023-08-06T06:20:24;3.00;;;2.10;;
19364;SDS011;9818;48.382;10.850;2023-08-06T06:22:53;2.93;;;2.40;;
19364;SDS011;9818;48.382;10.850;2023-08-06T06:25:24;3.00;;;2.50;;
19364;SDS011;9818;48.382;10.850;2023-08-06T06:27:53;6.50;;;2.60;;
19364;SDS011;9818;48.382;10.850;2023-08-06T06:30:23;4.63;;;2.47;;
19364;SDS011;9818;48.382;10.850;2023-08-06T06:32:52;4.87;;;2.70;;
19364;SDS011;9818;48.382;10.850;2023-08-06T06:35:21;4.67;;;2.60;;
19364;SDS011;9818;48.382;10.850;2023-08-06T06:37:49;3.77;;;2.60;;
19364;SDS011;9818;48.382;10.850;2023-08-06T06:40:19;2.60;;;2.20;;
19364;SDS011;9818;48.382;10.850;2023-08-06T06:42:50;3.17;;;2.30;;
19364;SDS011;9818;48.382;10.850;2023-08-06T06:45:19;3.20;;;2.17;;
19364;SDS011;9818;48.382;10.850;2023-08-06T06:47:48;3.10;;;2.30;;
19364;SDS011;9818;48.382;10.850;2023-08-06T06:50:16;1.90;;;1.80;;
19364;SDS011;9818;48.382;10.850;2023-08-06T06:52:45;2.60;;;1.97;;
19364;SDS011;9818;48.382;10.850;2023-08-06T06:55:14;2.60;;;1.97;;
19364;SDS011;9818;48.382;10.850;2023-08-06T06:57:43;2.97;;;1.93;;
19364;SDS011;9818;48.382;10.850;2023-08-06T07:00:14;3.57;;;2.10;;
19364;SDS011;9818;48.382;10.850;2023-08-06T07:02:43;2.40;;;1.60;;
19364;SDS011;9818;48.382;10.850;2023-08-06T07:05:11;3.03;;;2.20;;
19364;SDS011;9818;48.382;10.850;2023-08-06T07:07:40;2.30;;;2.00;;
19364;SDS011;9818;48.382;10.850;2023-08-06T07:10:09;2.90;;;1.57;;
19364;SDS011;9818;48.382;10.850;2023-08-06T07:12:38;2.53;;;1.80;;
19364;SDS011;9818;48.382;10.850;2023-08-06T07:15:07;3.87;;;1.97;;
19364;SDS011;9818;48.382;10.850;2023-08-06T07:17:39;3.07;;;2.17;;
19364;SDS011;9818;48.382;10.850;2023-08-06T07:20:07;2.60;;;1.50;;
19364;SDS011;9818;48.382;10.850;2023-08-06T07:22:36;1.83;;;1.57;;
19364;SDS011;9818;48.382;10.850;2023-08-06T07:25:05;3.37;;;1.50;;
19364;SDS011;9818;48.382;10.850;2023-08-06T07:27:34;3.30;;;1.90;;
19364;SDS011;9818;48.382;10.850;2023-08-06T07:30:04;3.40;;;1.93;;
19364;SDS011;9818;48.382;10.850;2023-08-06T07:32:33;1.73;;;1.50;;
19364;SDS011;9818;48.382;10.850;2023-08-06T07:35:05;2.67;;;1.70;;
19364;SDS011;9818;48.382;10.850;2023-08-06T07:37:37;3.43;;;1.60;;
19364;SDS011;9818;48.382;10.850;2023-08-06T07:40:06;3.13;;;1.43;;
19364;SDS011;9818;48.382;10.850;2023-08-06T07:42:36;1.33;;;1.10;;
19364;SDS011;9818;48.382;10.850;2023-08-06T07:45:05;1.60;;;1.40;;
19364;SDS011;9818;48.382;10.850;2023-08-06T07:47:35;2.17;;;1.07;;
19364;SDS011;9818;48.382;10.850;2023-08-06T07:50:07;1.63;;;1.23;;
19364;SDS011;9818;48.382;10.850;2023-08-06T07:52:36;2.60;;;1.10;;
19364;SDS011;9818;48.382;10.850;2023-08-06T07:55:05;2.70;;;1.30;;
19364;SDS011;9818;48.382;10.850;2023-08-06T07:57:34;1.47;;;1.37;;
19364;SDS011;9818;48.382;10.850;2023-08-06T08:00:03;1.60;;;1.13;;
19364;SDS011;9818;48.382;10.850;2023-08-06T08:02:34;1.50;;;1.20;;
19364;SDS011;9818;48.382;10.850;2023-08-06T08:05:03;2.83;;;1.30;;
19364;SDS011;9818;48.382;10.850;2023-08-06T08:07:35;2.80;;;1.10;;
19364;SDS011;9818;48.382;10.850;2023-08-06T08:10:05;1.20;;;1.10;;
19364;SDS011;9818;48.382;10.850;2023-08-06T08:12:35;1.30;;;1.00;;
19364;SDS011;9818;48.382;10.850;2023-08-06T08:15:04;0.90;;;0.90;;
19364;SDS011;9818;48.382;10.850;2023-08-06T08:17:33;1.20;;;0.80;;
19364;SDS011;9818;48.382;10.850;2023-08-06T08:20:03;1.43;;;1.00;;
19364;SDS011;9818;48.382;10.850;2023-08-06T08:22:35;1.20;;;0.93;;
19364;SDS011;9818;48.382;10.850;2023-08-06T08:25:04;1.63;;;1.00;;
19364;SDS011;9818;48.382;10.850;2023-08-06T08:27:33;2.60;;;1.00;;
19364;SDS011;9818;48.382;10.850;2023-08-06T08:30:02;1.67;;;1.00;;
19364;SDS011;9818;48.382;10.850;2023-08-06T08:32:32;2.63;;;1.10;;
19364;SDS011;9818;48.382;10.850;2023-08-06T08:35:01;0.80;;;0.73;;
19364;SDS011;9818;48.382;10.850;2023-08-06T08:37:29;2.33;;;0.90;;
19364;SDS011;9818;48.382;10.850;2023-08-06T08:40:01;1.07;;;0.80;;
19364;SDS011;9818;48.382;10.850;2023-08-06T08:42:30;0.83;;;0.80;;
19364;SDS011;9818;48.382;10.850;2023-08-06T08:44:59;0.97;;;0.87;;
19364;SDS011;9818;48.382;10.850;2023-08-06T08:47:28;1.83;;;1.17;;
19364;SDS011;9818;48.382;10.850;2023-08-06T08:49:58;2.73;;;1.03;;
19364;SDS011;9818;48.382;10.850;2023-08-06T08:52:29;1.67;;;0.83;;
19364;SDS011;9818;48.382;10.850;2023-08-06T08:55:02;1.70;;;1.13;;
19364;SDS011;9818;48.382;10.850;2023-08-06T08:57:32;1.80;;;1.30;;
19364;SDS011;9818;48.382;10.850;2023-08-06T09:00:00;1.57;;;1.00;;
19364;SDS011;9818;48.382;10.850;2023-08-06T09:02:30;1.20;;;1.10;;
19364;SDS011;9818;48.382;10.850;2023-08-06T09:05:00;1.20;;;0.90;;
19364;SDS011;9818;48.382;10.850;2023-08-06T09:07:32;2.30;;;1.27;;
19364;SDS011;9818;48.382;10.850;2023-08-06T09:10:06;2.20;;;0.60;;
19364;SDS011;9818;48.382;10.850;2023-08-06T09:12:38;1.60;;;0.97;;
19364;SDS011;9818;48.382;10.850;2023-08-06T09:15:08;2.23;;;0.70;;
19364;SDS011;9818;48.382;10.850;2023-08-06T09:17:36;1.53;;;0.77;;
19364;SDS011;9818;48.382;10.850;2023-08-06T09:20:09;1.93;;;0.80;;
19364;SDS011;9818;48.382;10.850;2023-08-06T09:22:39;0.90;;;0.80;;
19364;SDS011;9818;48.382;10.850;2023-08-06T09:25:12;2.07;;;0.80;;
19364;SDS011;9818;48.382;10.850;2023-08-06T09:27:49;1.27;;;0.73;;
19364;SDS011;9818;48.382;10.850;2023-08-06T09:30:29;1.27;;;0.70;;
19364;SDS011;9818;48.382;10.850;2023-08-06T09:32:59;1.40;;;0.70;;
19364;SDS011;9818;48.382;10.850;2023-08-06T09:35:28;0.77;;;0.70;;
19364;SDS011;9818;48.382;10.850;2023-08-06T09:38:05;0.73;;;0.60;;
19364;SDS011;9818;48.382;10.850;2023-08-06T09:40:39;0.80;;;0.70;;
19364;SDS011;9818;48.382;10.850;2023-08-06T09:43:07;3.20;;;0.80;;
19364;SDS011;9818;48.382;10.850;2023-08-06T09:45:37;1.97;;;0.57;;
19364;SDS011;9818;48.382;10.850;2023-08-06T09:48:06;0.80;;;0.70;;
19364;SDS011;9818;48.382;10.850;2023-08-06T09:50:37;1.67;;;0.60;;
19364;SDS011;9818;48.382;10.850;2023-08-06T09:53:07;1.07;;;0.63;;
19364;SDS011;9818;48.382;10.850;2023-08-06T09:55:39;1.13;;;0.60;;
19364;SDS011;9818;48.382;10.850;2023-08-06T09:58:08;2.10;;;0.90;;
19364;SDS011;9818;48.382;10.850;2023-08-06T10:00:37;1.00;;;0.60;;
19364;SDS011;9818;48.382;10.850;2023-08-06T10:03:06;0.60;;;0.60;;
19364;SDS011;9818;48.382;10.850;2023-08-06T10:05:35;2.00;;;0.83;;
19364;SDS011;9818;48.382;10.850;2023-08-06T10:08:05;1.27;;;0.70;;
19364;SDS011;9818;48.382;10.850;2023-08-06T10:10:35;0.80;;;0.60;;
19364;SDS011;9818;48.382;10.850;2023-08-06T10:13:07;2.00;;;0.70;;
19364;SDS011;9818;48.382;10.850;2023-08-06T10:15:37;2.77;;;0.60;;
19364;SDS011;9818;48.382;10.850;2023-08-06T10:18:07;2.10;;;0.80;;
19364;SDS011;9818;48.382;10.850;2023-08-06T10:20:36;1.17;;;0.70;;
19364;SDS011;9818;48.382;10.850;2023-08-06T10:23:05;1.73;;;0.70;;
19364;SDS011;9818;48.382;10.850;2023-08-06T10:25:35;1.13;;;0.80;;
19364;SDS011;9818;48.382;10.850;2023-08-06T10:28:11;0.60;;;0.60;;
19364;SDS011;9818;48.382;10.850;2023-08-06T10:30:44;1.53;;;0.60;;
19364;SDS011;9818;48.382;10.850;2023-08-06T10:33:13;2.87;;;0.90;;
19364;SDS011;9818;48.382;10.850;2023-08-06T10:35:43;0.90;;;0.80;;
19364;SDS011;9818;48.382;10.850;2023-08-06T10:38:15;0.50;;;0.50;;
19364;SDS011;9818;48.382;10.850;2023-08-06T10:41:00;1.17;;;0.60;;
19364;SDS011;9818;48.382;10.850;2023-08-06T10:43:31;0.80;;;0.60;;
19364;SDS011;9818;48.382;10.850;2023-08-06T10:46:03;0.50;;;0.50;;
19364;SDS011;9818;48.382;10.850;2023-08-06T10:48:37;0.63;;;0.60;;
19364;SDS011;9818;48.382;10.850;2023-08-06T10:51:07;0.60;;;0.60;;
19364;SDS011;9818;48.382;10.850;2023-08-06T10:53:37;0.67;;;0.67;;
19364;SDS011;9818;48.382;10.850;2023-08-06T10:56:14;0.50;;;0.50;;
19364;SDS011;9818;48.382;10.850;2023-08-06T10:58:44;1.70;;;0.60;;
19364;SDS011;9818;48.382;10.850;2023-08-06T11:01:14;1.23;;;0.60;;
19364;SDS011;9818;48.382;10.850;2023-08-06T11:03:43;2.80;;;0.50;;
19364;SDS011;9818;48.382;10.850;2023-08-06T11:06:17;0.50;;;0.50;;
19364;SDS011;9818;48.382;10.850;2023-08-06T11:08:48;1.63;;;0.67;;
19364;SDS011;9818;48.382;10.850;2023-08-06T11:11:21;0.93;;;0.50;;
19364;SDS011;9818;48.382;10.850;2023-08-06T11:13:51;0.83;;;0.50;;
19364;SDS011;9818;48.382;10.850;2023-08-06T11:16:21;0.40;;;0.40;;
19364;SDS011;9818;48.382;10.850;2023-08-06T11:18:51;0.97;;;0.57;;
19364;SDS011;9818;48.382;10.850;2023-08-06T11:21:21;0.60;;;0.50;;
19364;SDS011;9818;48.382;10.850;2023-08-06T11:23:50;0.40;;;0.40;;
19364;SDS011;9818;48.382;10.850;2023-08-06T11:26:22;2.60;;;0.60;;
19364;SDS011;9818;48.382;10.850;2023-08-06T11:28:52;0.43;;;0.40;;
19364;SDS011;9818;48.382;10.850;2023-08-06T11:31:21;0.40;;;0.40;;
19364;SDS011;9818;48.382;10.850;2023-08-06T11:33:51;0.50;;;0.50;;
19364;SDS011;9818;48.382;10.850;2023-08-06T11:36:28;0.40;;;0.40;;
19364;SDS011;9818;48.382;10.850;2023-08-06T11:38:57;0.40;;;0.40;;
19364;SDS011;9818;48.382;10.850;2023-08-06T11:41:30;0.40;;;0.40;;
19364;SDS011;9818;48.382;10.850;2023-08-06T11:43:59;0.40;;;0.40;;
19364;SDS011;9818;48.382;10.850;2023-08-06T11:46:28;0.50;;;0.50;;
19364;SDS011;9818;48.382;10.850;2023-08-06T11:48:58;1.00;;;0.47;;
19364;SDS011;9818;48.382;10.850;2023-08-06T11:51:27;1.17;;;0.40;;
19364;SDS011;9818;48.382;10.850;2023-08-06T11:53:56;0.40;;;0.40;;
19364;SDS011;9818;48.382;10.850;2023-08-06T11:56:30;0.80;;;0.67;;
19364;SDS011;9818;48.382;10.850;2023-08-06T11:59:00;0.70;;;0.50;;
19364;SDS011;9818;48.382;10.850;2023-08-06T12:01:29;0.80;;;0.47;;
19364;SDS011;9818;48.382;10.850;2023-08-06T12:03:58;1.50;;;0.50;;
19364;SDS011;9818;48.382;10.850;2023-08-06T12:06:27;0.50;;;0.50;;
19364;SDS011;9818;48.382;10.850;2023-08-06T12:08:56;0.40;;;0.40;;
19364;SDS011;9818;48.382;10.850;2023-08-06T12:11:24;1.40;;;0.50;;
19364;SDS011;9818;48.382;10.850;2023-08-06T12:13:57;0.40;;;0.40;;
19364;SDS011;9818;48.382;10.850;2023-08-06T12:16:25;0.50;;;0.47;;
19364;SDS011;9818;48.382;10.850;2023-08-06T12:18:54;0.40;;;0.40;;
19364;SDS011;9818;48.382;10.850;2023-08-06T12:21:23;0.47;;;0.47;;
19364;SDS011;9818;48.382;10.850;2023-08-06T12:23:51;1.13;;;0.50;;
19364;SDS011;9818;48.382;10.850;2023-08-06T12:26:20;0.50;;;0.50;;
19364;SDS011;9818;48.382;10.850;2023-08-06T12:28:49;0.93;;;0.50;;
19364;SDS011;9818;48.382;10.850;2023-08-06T12:31:22;0.60;;;0.50;;
19364;SDS011;9818;48.382;10.850;2023-08-06T12:33:51;0.50;;;0.50;;
19364;SDS011;9818;48.382;10.850;2023-08-06T12:36:20;0.60;;;0.50;;
19364;SDS011;9818;48.382;10.850;2023-08-06T12:38:49;0.40;;;0.40;;
19364;SDS011;9818;48.382;10.850;2023-08-06T12:41:17;0.40;;;0.40;;
19364;SDS011;9818;48.382;10.850;2023-08-06T12:43:46;0.50;;;0.50;;
19364;SDS011;9818;48.382;10.850;2023-08-06T12:46:16;0.63;;;0.60;;
19364;SDS011;9818;48.382;10.850;2023-08-06T12:48:47;0.40;;;0.40;;
19364;SDS011;9818;48.382;10.850;2023-08-06T12:51:16;0.40;;;0.40;;
19364;SDS011;9818;48.382;10.850;2023-08-06T12:53:45;1.23;;;0.50;;
19364;SDS011;9818;48.382;10.850;2023-08-06T12:56:14;0.47;;;0.40;;
19364;SDS011;9818;48.382;10.850;2023-08-06T12:58:43;0.50;;;0.40;;
19364;SDS011;9818;48.382;10.850;2023-08-06T13:01:11;0.87;;;0.53;;
19364;SDS011;9818;48.382;10.850;2023-08-06T13:03:40;0.50;;;0.50;;
19364;SDS011;9818;48.382;10.850;2023-08-06T13:06:11;0.33;;;0.33;;
19364;SDS011;9818;48.382;10.850;2023-08-06T13:08:40;0.50;;;0.50;;
19364;SDS011;9818;48.382;10.850;2023-08-06T13:11:09;0.40;;;0.40;;
19364;SDS011;9818;48.382;10.850;2023-08-06T13:13:38;0.60;;;0.40;;
19364;SDS011;9818;48.382;10.850;2023-08-06T13:16:06;0.50;;;0.50;;
19364;SDS011;9818;48.382;10.850;2023-08-06T13:18:35;0.50;;;0.50;;
19364;SDS011;9818;48.382;10.850;2023-08-06T13:21:04;0.40;;;0.40;;
19364;SDS011;9818;48.382;10.850;2023-08-06T13:23:35;1.57;;;0.50;;
19364;SDS011;9818;48.382;10.850;2023-08-06T13:26:04;0.60;;;0.60;;
19364;SDS011;9818;48.382;10.850;2023-08-06T13:28:32;0.53;;;0.50;;
19364;SDS011;9818;48.382;10.850;2023-08-06T13:31:01;1.17;;;0.60;;
19364;SDS011;9818;48.382;10.850;2023-08-06T13:33:30;0.60;;;0.60;;
19364;SDS011;9818;48.382;10.850;2023-08-06T13:35:58;0.50;;;0.50;;
19364;SDS011;9818;48.382;10.850;2023-08-06T13:38:27;0.60;;;0.60;;
19364;SDS011;9818;48.382;10.850;2023-08-06T13:40:58;0.67;;;0.63;;
19364;SDS011;9818;48.382;10.850;2023-08-06T13:43:27;0.40;;;0.40;;
19364;SDS011;9818;48.382;10.850;2023-08-06T13:45:56;0.40;;;0.40;;
19364;SDS011;9818;48.382;10.850;2023-08-06T13:48:24;0.40;;;0.40;;
19364;SDS011;9818;48.382;10.850;2023-08-06T13:50:53;0.40;;;0.40;;
19364;SDS011;9818;48.382;10.850;2023-08-06T13:53:22;0.43;;;0.43;;
19364;SDS011;9818;48.382;10.850;2023-08-06T13:55:55;0.57;;;0.50;;
19364;SDS011;9818;48.382;10.850;2023-08-06T13:58:27;0.40;;;0.40;;
19364;SDS011;9818;48.382;10.850;2023-08-06T14:00:55;0.87;;;0.50;;
19364;SDS011;9818;48.382;10.850;2023-08-06T14:03:24;0.60;;;0.50;;
19364;SDS011;9818;48.382;10.850;2023-08-06T14:05:53;0.50;;;0.50;;
19364;SDS011;9818;48.382;10.850;2023-08-06T14:08:22;0.57;;;0.53;;
19364;SDS011;9818;48.382;10.850;2023-08-06T14:10:51;0.40;;;0.40;;
19364;SDS011;9818;48.382;10.850;2023-08-06T14:13:20;0.60;;;0.60;;
19364;SDS011;9818;48.382;10.850;2023-08-06T14:15:52;0.90;;;0.63;;
19364;SDS011;9818;48.382;10.850;2023-08-06T14:18:21;0.80;;;0.80;;
19364;SDS011;9818;48.382;10.850;2023-08-06T14:20:50;0.60;;;0.60;;
19364;SDS011;9818;48.382;10.850;2023-08-06T14:23:19;1.53;;;0.77;;
19364;SDS011;9818;48.382;10.850;2023-08-06T14:25:48;0.87;;;0.60;;
19364;SDS011;9818;48.382;10.850;2023-08-06T14:28:16;0.60;;;0.50;;
19364;SDS011;9818;48.382;10.850;2023-08-06T14:30:45;1.43;;;0.83;;
19364;SDS011;9818;48.382;10.850;2023-08-06T14:33:17;0.50;;;0.50;;
19364;SDS011;9818;48.382;10.850;2023-08-06T14:35:45;1.17;;;0.60;;
19364;SDS011;9818;48.382;10.850;2023-08-06T14:38:14;2.70;;;1.73;;
19364;SDS011;9818;48.382;10.850;2023-08-06T14:40:43;2.47;;;1.70;;
19364;SDS011;9818;48.382;10.850;2023-08-06T14:43:12;2.40;;;0.97;;
19364;SDS011;9818;48.382;10.850;2023-08-06T14:45:40;1.30;;;1.20;;
19364;SDS011;9818;48.382;10.850;2023-08-06T14:48:09;1.53;;;1.33;;
19364;SDS011;9818;48.382;10.850;2023-08-06T14:50:40;1.37;;;1.27;;
19364;SDS011;9818;48.382;10.850;2023-08-06T14:53:09;2.00;;;1.30;;
19364;SDS011;9818;48.382;10.850;2023-08-06T14:55:38;3.53;;;2.23;;
19364;SDS011;9818;48.382;10.850;2023-08-06T14:58:07;1.83;;;1.50;;
19364;SDS011;9818;48.382;10.850;2023-08-06T15:00:36;3.00;;;1.30;;
19364;SDS011;9818;48.382;10.850;2023-08-06T15:03:04;4.83;;;3.60;;
19364;SDS011;9818;48.382;10.850;2023-08-06T15:05:33;5.77;;;4.73;;
19364;SDS011;9818;48.382;10.850;2023-08-06T15:08:05;5.70;;;3.37;;
19364;SDS011;9818;48.382;10.850;2023-08-06T15:10:34;2.30;;;2.10;;